Time;durP1;ratioP1;P1;durP2;ratioP2;P2;SDS_P1;SDS_P2;PMS_P1;PMS_P2;Temp;Humidity;BMP_temperature;BMP_pressure;BME280_temperature;BME280_humidity;BME280_pressure;Samples;Min_cycle;Max_cycle;Signal;HPM_P1;HPM_P2
2024/03/23 00:02:11;;;;;;;1.13;0.60;;;7.90;91.90;;;;;;5029556;28;20397;-73
2024/03/23 00:04:37;;;;;;;1.38;0.70;;;7.90;91.90;;;;;;5031761;28;20041;-73
2024/03/23 00:07:04;;;;;;;2.40;0.82;;;7.90;91.90;;;;;;5031511;28;20049;-73
2024/03/23 00:09:30;;;;;;;1.50;0.75;;;7.90;91.90;;;;;;5031356;28;20048;-73
2024/03/23 00:11:57;;;;;;;1.00;0.68;;;7.90;92.20;;;;;;5063847;28;20044;-72
2024/03/23 00:14:24;;;;;;;1.50;0.80;;;7.90;91.90;;;;;;5047000;28;20068;-72
2024/03/23 00:16:50;;;;;;;1.95;0.80;;;7.90;91.80;;;;;;5049204;28;20060;-72
2024/03/23 00:19:17;;;;;;;2.33;1.00;;;8.00;91.80;;;;;;5051153;28;20051;-73
2024/03/23 00:21:43;;;;;;;1.52;0.80;;;7.90;91.80;;;;;;5051281;28;20481;-72
2024/03/23 00:24:13;;;;;;;1.40;0.80;;;7.90;91.90;;;;;;5050882;28;20045;-73
2024/03/23 00:26:40;;;;;;;1.92;0.80;;;7.80;91.90;;;;;;5051094;28;20052;-72
2024/03/23 00:29:06;;;;;;;1.52;0.60;;;7.80;91.90;;;;;;5082763;28;20040;-72
2024/03/23 00:31:33;;;;;;;2.85;0.80;;;7.80;91.90;;;;;;5091197;28;20435;-72
2024/03/23 00:33:59;;;;;;;1.45;0.75;;;7.80;91.90;;;;;;5091306;28;20052;-72
2024/03/23 00:36:26;;;;;;;1.40;0.70;;;7.60;91.90;;;;;;5091542;28;20047;-72
2024/03/23 00:38:53;;;;;;;3.03;0.90;;;7.70;91.90;;;;;;5073854;28;20060;-72
2024/03/23 00:41:19;;;;;;;1.30;0.70;;;7.70;91.90;;;;;;5090952;28;20042;-72
2024/03/23 00:43:46;;;;;;;1.77;0.70;;;7.70;91.90;;;;;;5074110;28;20171;-72
2024/03/23 00:46:12;;;;;;;1.42;0.70;;;7.70;91.90;;;;;;5125393;27;20042;-73
2024/03/23 00:48:45;;;;;;;3.70;0.70;;;7.60;91.90;;;;;;5134523;27;20043;-73
2024/03/23 00:51:11;;;;;;;0.60;0.60;;;7.70;91.90;;;;;;5115665;27;20069;-73
2024/03/23 00:53:37;;;;;;;1.10;0.60;;;7.60;91.90;;;;;;5133946;27;20442;-72
2024/03/23 00:56:03;;;;;;;1.40;0.70;;;7.60;91.90;;;;;;5134063;27;20088;-72
2024/03/23 00:58:29;;;;;;;1.13;0.60;;;7.60;91.80;;;;;;5134336;27;20047;-72
2024/03/23 01:00:55;;;;;;;1.25;0.70;;;7.60;91.80;;;;;;5133577;27;20371;-72
2024/03/23 01:03:21;;;;;;;0.77;0.65;;;7.60;91.90;;;;;;5098148;27;20062;-73
2024/03/23 01:05:46;;;;;;;1.67;0.60;;;7.60;91.90;;;;;;5115421;28;20054;-72
2024/03/23 01:08:12;;;;;;;0.90;0.50;;;7.50;91.80;;;;;;5115201;28;20114;-73
2024/03/23 01:10:38;;;;;;;1.60;0.80;;;7.50;91.80;;;;;;5115172;27;20081;-73
2024/03/23 01:13:04;;;;;;;1.13;0.70;;;7.50;91.80;;;;;;5133544;27;20240;-73
2024/03/23 01:15:29;;;;;;;1.95;0.77;;;7.50;91.80;;;;;;5115163;28;20096;-73
2024/03/23 01:17:55;;;;;;;1.08;0.68;;;7.40;91.80;;;;;;5133683;27;20043;-73
2024/03/23 01:20:21;;;;;;;0.90;0.70;;;7.50;91.80;;;;;;5133244;27;20071;-73
2024/03/23 01:22:46;;;;;;;1.88;0.60;;;7.50;91.80;;;;;;5134030;27;20039;-72
2024/03/23 01:25:12;;;;;;;1.40;0.68;;;7.50;91.80;;;;;;5115299;27;20024;-72
2024/03/23 01:27:38;;;;;;;2.28;0.80;;;7.50;91.80;;;;;;5096652;28;20288;-72
2024/03/23 01:30:04;;;;;;;0.52;0.50;;;7.50;91.80;;;;;;5133433;28;20521;-72
2024/03/23 01:32:30;;;;;;;1.45;0.52;;;7.40;91.80;;;;;;5114831;27;20043;-72
2024/03/23 01:34:55;;;;;;;0.70;0.50;;;7.50;91.80;;;;;;5114680;28;20047;-72
2024/03/23 01:37:21;;;;;;;0.63;0.47;;;7.40;91.80;;;;;;5114877;28;20041;-72
2024/03/23 01:39:47;;;;;;;1.27;0.70;;;7.40;91.80;;;;;;5114507;27;20383;-73
2024/03/23 01:42:12;;;;;;;0.47;0.40;;;7.40;91.80;;;;;;5097521;28;20607;-72
2024/03/23 01:44:38;;;;;;;1.45;0.50;;;7.40;91.80;;;;;;5133017;28;20044;-72
2024/03/23 01:47:06;;;;;;;0.88;0.60;;;7.30;91.80;;;;;;5133342;28;20121;-72
2024/03/23 01:49:31;;;;;;;1.25;0.60;;;7.30;91.80;;;;;;5133375;27;20103;-72
2024/03/23 01:51:57;;;;;;;1.27;0.60;;;7.40;91.80;;;;;;5097205;27;20043;-73
2024/03/23 01:54:25;;;;;;;2.53;0.63;;;7.30;91.70;;;;;;5114566;27;20379;-72
2024/03/23 01:56:50;;;;;;;1.02;0.65;;;7.30;91.70;;;;;;5133325;27;20047;-72
2024/03/23 01:59:16;;;;;;;1.92;0.60;;;7.30;91.70;;;;;;5133246;27;20118;-72
2024/03/23 02:01:42;;;;;;;0.70;0.50;;;7.30;91.70;;;;;;5132549;27;20043;-73
2024/03/23 02:04:09;;;;;;;0.50;0.47;;;7.30;91.70;;;;;;5133068;27;20053;-72
2024/03/23 02:06:35;;;;;;;1.27;0.60;;;7.30;91.70;;;;;;5132921;27;20394;-73
2024/03/23 02:09:01;;;;;;;0.70;0.47;;;7.30;91.80;;;;;;5114523;27;20035;-72
2024/03/23 02:11:27;;;;;;;0.88;0.50;;;7.30;91.80;;;;;;5133011;27;20035;-72
2024/03/23 02:13:53;;;;;;;1.23;0.50;;;7.30;91.70;;;;;;5097106;27;20093;-72
2024/03/23 02:16:18;;;;;;;0.65;0.50;;;7.30;91.70;;;;;;5097030;28;20062;-72
2024/03/23 02:18:44;;;;;;;0.68;0.52;;;7.30;91.70;;;;;;5132375;27;20046;-73
2024/03/23 02:21:10;;;;;;;0.95;0.50;;;7.30;91.70;;;;;;5132593;27;20080;-72
2024/03/23 02:23:35;;;;;;;0.63;0.47;;;7.20;91.70;;;;;;5113879;27;20038;-73
2024/03/23 02:26:01;;;;;;;1.23;0.63;;;7.20;91.70;;;;;;5132286;27;20047;-73
2024/03/23 02:28:27;;;;;;;0.50;0.40;;;7.20;91.70;;;;;;5132448;28;20080;-72
2024/03/23 02:30:53;;;;;;;1.45;0.63;;;7.30;91.70;;;;;;5114051;27;20042;-72
2024/03/23 02:33:19;;;;;;;0.93;0.60;;;7.20;91.70;;;;;;5097018;28;20043;-73
2024/03/23 02:35:47;;;;;;;1.38;0.75;;;7.20;91.70;;;;;;5114088;28;20038;-72
2024/03/23 02:38:12;;;;;;;1.90;0.80;;;7.20;91.70;;;;;;5132227;27;20096;-72
2024/03/23 02:40:38;;;;;;;1.77;0.85;;;7.10;91.70;;;;;;5113631;28;20440;-72
2024/03/23 02:43:04;;;;;;;1.58;0.77;;;7.20;91.70;;;;;;5114436;28;20039;-72
2024/03/23 02:45:31;;;;;;;1.75;0.93;;;7.20;91.70;;;;;;5132109;27;20092;-72
2024/03/23 02:47:57;;;;;;;1.55;0.63;;;7.10;91.70;;;;;;5130128;28;20095;-72
2024/03/23 02:50:23;;;;;;;2.15;0.80;;;7.20;91.70;;;;;;5132279;27;20518;-72
2024/03/23 02:52:49;;;;;;;3.10;1.10;;;7.10;91.70;;;;;;5136149;28;20047;-72
2024/03/23 02:55:15;;;;;;;0.63;0.60;;;7.10;91.70;;;;;;5136227;28;20482;-72
2024/03/23 02:57:41;;;;;;;2.97;0.90;;;7.10;91.70;;;;;;5135766;27;20121;-72
2024/03/23 03:00:07;;;;;;;2.97;1.17;;;7.00;91.70;;;;;;5117202;28;20043;-72
2024/03/23 03:02:33;;;;;;;2.83;0.90;;;7.00;91.70;;;;;;5135447;27;20103;-73
2024/03/23 03:04:59;;;;;;;1.55;0.80;;;7.00;91.80;;;;;;5117697;28;20084;-72
2024/03/23 03:07:25;;;;;;;2.47;0.80;;;7.00;91.80;;;;;;5117010;28;20486;-72
2024/03/23 03:09:51;;;;;;;2.40;0.93;;;7.00;91.80;;;;;;5117456;28;20042;-72
2024/03/23 03:12:17;;;;;;;2.15;0.90;;;7.00;92.10;;;;;;5117173;28;20063;-72
2024/03/23 03:14:42;;;;;;;3.13;1.00;;;6.90;91.80;;;;;;5135293;27;20066;-72
2024/03/23 03:17:08;;;;;;;1.35;0.80;;;6.90;91.80;;;;;;5117290;28;20035;-73
2024/03/23 03:19:34;;;;;;;2.50;1.02;;;6.90;91.80;;;;;;5135851;27;20050;-72
2024/03/23 03:22:00;;;;;;;1.67;0.82;;;6.90;91.80;;;;;;5117173;28;20046;-72
2024/03/23 03:24:25;;;;;;;2.00;1.10;;;6.80;91.80;;;;;;5117065;28;20068;-72
2024/03/23 03:26:51;;;;;;;1.55;0.90;;;6.80;91.80;;;;;;5116844;28;20434;-72
2024/03/23 03:29:17;;;;;;;1.33;0.90;;;6.80;91.80;;;;;;5135301;28;20351;-72
2024/03/23 03:31:43;;;;;;;2.70;1.10;;;6.80;91.90;;;;;;5099904;27;20035;-72
2024/03/23 03:34:09;;;;;;;2.65;1.08;;;6.80;91.90;;;;;;5135479;27;20035;-72
2024/03/23 03:36:34;;;;;;;1.20;0.70;;;6.70;91.90;;;;;;5135296;27;20046;-72
2024/03/23 03:39:00;;;;;;;2.90;1.10;;;6.80;91.90;;;;;;5135163;27;20088;-73
2024/03/23 03:41:26;;;;;;;2.25;1.25;;;6.70;91.90;;;;;;5116353;28;20054;-73
2024/03/23 03:43:52;;;;;;;1.73;1.00;;;6.70;91.90;;;;;;5134740;27;20032;-72
2024/03/23 03:46:17;;;;;;;2.65;1.30;;;6.70;91.90;;;;;;5116768;28;20122;-72
2024/03/23 03:48:44;;;;;;;2.30;1.20;;;6.70;91.90;;;;;;5116409;27;20043;-72
2024/03/23 03:51:11;;;;;;;1.67;1.00;;;6.70;91.90;;;;;;5134708;27;20041;-73
2024/03/23 03:53:36;;;;;;;1.67;1.00;;;6.70;91.90;;;;;;5082438;28;20042;-72
2024/03/23 03:56:02;;;;;;;1.90;1.00;;;6.70;91.90;;;;;;5116080;27;20039;-73
2024/03/23 03:58:28;;;;;;;2.30;1.38;;;6.70;91.80;;;;;;5116290;28;20104;-72
2024/03/23 04:00:54;;;;;;;2.20;1.00;;;6.70;91.80;;;;;;5115796;27;20047;-73
2024/03/23 04:03:20;;;;;;;4.40;1.50;;;6.70;91.90;;;;;;5134942;27;20110;-72
2024/03/23 04:05:54;;;;;;;2.80;1.50;;;6.60;91.80;;;;;;5116655;28;20081;-72
2024/03/23 04:08:20;;;;;;;3.63;1.40;;;6.60;91.90;;;;;;5134717;28;20035;-73
2024/03/23 04:10:46;;;;;;;1.67;1.20;;;6.60;91.90;;;;;;5098934;28;20142;-72
2024/03/23 04:13:12;;;;;;;3.05;1.10;;;6.50;91.90;;;;;;5134587;27;20122;-72
2024/03/23 04:15:38;;;;;;;2.92;1.40;;;6.60;91.90;;;;;;5134618;27;20046;-72
2024/03/23 04:18:04;;;;;;;2.65;1.17;;;6.50;91.90;;;;;;5134870;27;20043;-72
2024/03/23 04:20:30;;;;;;;2.00;1.00;;;6.50;92.00;;;;;;5098960;27;20401;-72
2024/03/23 04:22:56;;;;;;;2.28;1.45;;;6.40;91.90;;;;;;5134166;27;20073;-72
2024/03/23 04:25:21;;;;;;;1.67;1.00;;;6.40;92.20;;;;;;5098948;28;20035;-72
2024/03/23 04:27:47;;;;;;;1.52;1.05;;;6.40;92.20;;;;;;5115437;28;20042;-72
2024/03/23 04:30:13;;;;;;;1.45;0.80;;;6.30;92.00;;;;;;5116180;27;20031;-73
2024/03/23 04:32:39;;;;;;;1.08;0.85;;;6.30;92.00;;;;;;5115526;28;20047;-72
2024/03/23 04:35:06;;;;;;;1.50;0.80;;;6.20;92.00;;;;;;5133989;27;20037;-72
2024/03/23 04:37:33;;;;;;;1.67;0.82;;;6.20;92.00;;;;;;5134236;27;20134;-72
2024/03/23 04:40:01;;;;;;;1.42;0.68;;;6.20;92.10;;;;;;5098619;28;20465;-72
2024/03/23 04:42:27;;;;;;;3.22;1.00;;;6.10;92.10;;;;;;5134145;27;20034;-72
2024/03/23 04:44:53;;;;;;;0.88;0.60;;;6.10;92.10;;;;;;5134664;27;20088;-72
2024/03/23 04:47:18;;;;;;;2.30;1.05;;;6.10;92.10;;;;;;5115462;27;20039;-72
2024/03/23 04:49:44;;;;;;;1.50;0.70;;;6.00;92.10;;;;;;5115487;27;20124;-72
2024/03/23 04:52:10;;;;;;;1.17;0.65;;;6.00;92.10;;;;;;5134310;27;20058;-72
2024/03/23 04:54:35;;;;;;;1.10;0.70;;;6.00;92.10;;;;;;5134235;27;20453;-72
2024/03/23 04:57:01;;;;;;;1.50;0.77;;;5.90;92.10;;;;;;5115563;28;20036;-71
2024/03/23 04:59:27;;;;;;;2.17;0.70;;;5.90;92.20;;;;;;5133731;27;20398;-72
2024/03/23 05:01:53;;;;;;;0.93;0.70;;;5.80;92.10;;;;;;5115386;28;20067;-73
2024/03/23 05:04:18;;;;;;;1.75;0.70;;;5.80;92.10;;;;;;5133763;27;20039;-72
2024/03/23 05:06:44;;;;;;;1.88;0.70;;;5.80;92.10;;;;;;5134203;27;20054;-72
2024/03/23 05:09:11;;;;;;;1.48;0.70;;;5.70;92.10;;;;;;5133644;27;20042;-72
2024/03/23 05:11:38;;;;;;;0.98;0.60;;;5.70;92.10;;;;;;5115041;28;20046;-72
2024/03/23 05:14:04;;;;;;;1.92;0.70;;;5.80;92.20;;;;;;5132947;27;20031;-72
2024/03/23 05:16:30;;;;;;;1.02;0.70;;;5.70;92.20;;;;;;5133965;27;20501;-73
2024/03/23 05:18:56;;;;;;;2.03;0.63;;;5.60;92.10;;;;;;5115549;28;20039;-72
2024/03/23 05:21:22;;;;;;;1.85;0.80;;;5.60;92.20;;;;;;5133558;27;20134;-74
2024/03/23 05:23:47;;;;;;;1.88;0.57;;;5.60;92.20;;;;;;5115359;28;20035;-72
2024/03/23 05:26:14;;;;;;;2.17;0.60;;;5.60;92.20;;;;;;5115701;28;20035;-72
2024/03/23 05:28:40;;;;;;;1.25;0.60;;;5.50;92.40;;;;;;5097883;27;20030;-72
2024/03/23 05:31:06;;;;;;;1.95;0.60;;;5.50;92.10;;;;;;5133295;27;20086;-72
2024/03/23 05:33:31;;;;;;;1.90;0.82;;;5.50;92.10;;;;;;5133336;28;20038;-72
2024/03/23 05:35:58;;;;;;;1.27;0.65;;;5.50;92.10;;;;;;5097833;28;20035;-72
2024/03/23 05:38:24;;;;;;;2.60;0.80;;;5.50;92.10;;;;;;5114979;28;20054;-73
2024/03/23 05:40:58;;;;;;;2.08;0.60;;;5.50;92.10;;;;;;5114673;27;20069;-72
2024/03/23 05:43:24;;;;;;;1.70;0.80;;;5.50;92.10;;;;;;5133508;27;20050;-72
2024/03/23 05:45:58;;;;;;;3.72;1.10;;;5.50;92.00;;;;;;5133656;28;20401;-73
2024/03/23 05:48:25;;;;;;;1.70;0.80;;;5.50;92.00;;;;;;5114748;28;20055;-73
2024/03/23 05:50:51;;;;;;;1.50;0.60;;;5.60;92.10;;;;;;5114712;28;20043;-72
2024/03/23 05:53:17;;;;;;;1.80;0.80;;;5.50;92.00;;;;;;5114621;27;20095;-72
2024/03/23 05:55:43;;;;;;;1.85;0.68;;;5.50;92.00;;;;;;5114779;27;20054;-72
2024/03/23 05:58:10;;;;;;;2.53;0.77;;;5.40;92.00;;;;;;5115377;28;20031;-73
2024/03/23 06:00:35;;;;;;;2.17;0.73;;;5.50;92.00;;;;;;5114694;27;20378;-73
2024/03/23 06:03:01;;;;;;;2.08;0.80;;;5.50;92.00;;;;;;5114827;28;20050;-72
2024/03/23 06:05:27;;;;;;;2.47;0.80;;;5.50;92.00;;;;;;5114282;28;20463;-72
2024/03/23 06:07:53;;;;;;;1.83;0.70;;;5.50;92.00;;;;;;5114583;28;20126;-72
2024/03/23 06:10:19;;;;;;;1.20;0.55;;;5.50;92.00;;;;;;5133382;27;20039;-72
2024/03/23 06:12:46;;;;;;;2.33;0.77;;;5.50;92.00;;;;;;5133398;27;20371;-72
2024/03/23 06:15:12;;;;;;;1.45;0.80;;;5.50;91.90;;;;;;5133040;27;20075;-72
2024/03/23 06:17:38;;;;;;;2.35;0.90;;;5.50;91.90;;;;;;5097126;28;20554;-73
2024/03/23 06:20:06;;;;;;;1.23;0.82;;;5.50;91.90;;;;;;5132909;27;20031;-73
2024/03/23 06:22:32;;;;;;;2.40;0.80;;;5.40;91.80;;;;;;5132694;27;20043;-73
2024/03/23 06:24:57;;;;;;;1.02;0.70;;;5.50;91.80;;;;;;5133286;27;20633;-72
2024/03/23 06:27:23;;;;;;;2.75;0.85;;;5.60;91.90;;;;;;5100712;28;20126;-72
2024/03/23 06:29:49;;;;;;;3.92;0.70;;;5.60;91.80;;;;;;5100715;27;20035;-72
2024/03/23 06:32:14;;;;;;;1.70;0.70;;;5.70;91.80;;;;;;5136450;27;20039;-72
2024/03/23 06:34:42;;;;;;;1.35;0.70;;;5.70;91.80;;;;;;5136381;27;20035;-72
2024/03/23 06:37:09;;;;;;;3.33;0.70;;;5.80;91.70;;;;;;5100767;27;20027;-72
2024/03/23 06:39:36;;;;;;;1.58;0.80;;;5.90;91.60;;;;;;5118110;28;20046;-72
2024/03/23 06:42:02;;;;;;;1.63;0.80;;;6.00;91.50;;;;;;5117653;28;20035;-72
2024/03/23 06:44:28;;;;;;;1.13;0.60;;;6.00;91.40;;;;;;5136025;27;20402;-72
2024/03/23 06:46:54;;;;;;;1.58;0.60;;;6.10;91.40;;;;;;5100223;27;20038;-72
2024/03/23 06:49:20;;;;;;;1.45;0.70;;;6.10;91.40;;;;;;5135935;27;20043;-73
2024/03/23 06:51:46;;;;;;;3.78;0.90;;;6.20;91.40;;;;;;5100515;28;20130;-72
2024/03/23 06:54:12;;;;;;;1.30;0.70;;;6.20;91.30;;;;;;5135780;27;20035;-72
2024/03/23 06:56:38;;;;;;;0.82;0.63;;;6.20;91.40;;;;;;5135994;27;20036;-72
2024/03/23 06:59:04;;;;;;;1.80;0.70;;;6.20;91.40;;;;;;5136261;27;20047;-72
2024/03/23 07:01:29;;;;;;;0.82;0.52;;;6.20;91.40;;;;;;5117378;28;20375;-72
2024/03/23 07:03:55;;;;;;;3.45;0.90;;;6.30;91.40;;;;;;5117519;28;20118;-72
2024/03/23 07:06:21;;;;;;;1.30;0.80;;;6.30;91.40;;;;;;5117357;27;20039;-72
2024/03/23 07:08:47;;;;;;;1.48;0.80;;;6.40;91.40;;;;;;5135580;27;20047;-72
2024/03/23 07:11:20;;;;;;;2.20;0.60;;;6.60;91.30;;;;;;5100056;28;20531;-72
2024/03/23 07:13:45;;;;;;;1.65;0.80;;;6.60;91.50;;;;;;5117546;28;20039;-72
2024/03/23 07:16:12;;;;;;;2.05;0.68;;;6.70;91.10;;;;;;5136211;27;20038;-72
2024/03/23 07:18:38;;;;;;;1.88;0.95;;;6.70;91.10;;;;;;5117689;28;20070;-72
2024/03/23 07:21:06;;;;;;;3.28;1.15;;;6.70;91.10;;;;;;5135190;27;20043;-72
2024/03/23 07:23:32;;;;;;;2.15;0.82;;;6.70;91.10;;;;;;5135616;27;20027;-72
2024/03/23 07:25:59;;;;;;;2.30;0.98;;;6.70;91.10;;;;;;5117322;28;20035;-72
2024/03/23 07:28:25;;;;;;;1.40;0.70;;;6.70;91.10;;;;;;5133887;28;20127;-72
2024/03/23 07:31:09;;;;;;;0.85;0.52;;;6.80;91.10;;;;;;5117055;27;20506;-73
2024/03/23 07:33:36;;;;;;;1.27;0.80;;;6.80;91.10;;;;;;5134551;28;20070;-72
2024/03/23 07:36:03;;;;;;;0.88;0.77;;;6.80;91.00;;;;;;5135175;27;20043;-72
2024/03/23 07:38:29;;;;;;;2.45;0.77;;;6.80;91.00;;;;;;5114611;28;20050;-72
2024/03/23 07:41:06;;;;;;;1.02;0.82;;;6.80;91.00;;;;;;5099719;27;20039;-72
2024/03/23 07:43:33;;;;;;;2.10;0.80;;;6.90;91.10;;;;;;5115275;28;20042;-73
2024/03/23 07:45:59;;;;;;;2.60;0.90;;;6.90;91.10;;;;;;5116852;28;20166;-73
2024/03/23 07:48:25;;;;;;;1.83;0.77;;;6.90;91.10;;;;;;5134954;27;20062;-72
2024/03/23 07:51:02;;;;;;;1.20;0.55;;;7.00;91.00;;;;;;5134978;28;20136;-73
2024/03/23 07:53:28;;;;;;;2.42;0.65;;;7.10;91.00;;;;;;5097687;28;20039;-72
2024/03/23 07:55:57;;;;;;;2.92;0.85;;;7.20;90.90;;;;;;5116696;28;20122;-73
2024/03/23 07:58:23;;;;;;;1.42;0.60;;;7.20;90.90;;;;;;5134640;27;20035;-72
2024/03/23 08:00:49;;;;;;;2.47;1.00;;;7.40;90.90;;;;;;5134839;27;20121;-72
2024/03/23 08:03:15;;;;;;;1.88;0.88;;;7.40;90.80;;;;;;5116462;28;20043;-73
2024/03/23 08:05:40;;;;;;;3.13;0.90;;;7.40;90.80;;;;;;5135181;27;20076;-72
2024/03/23 08:08:06;;;;;;;2.33;0.88;;;7.60;90.80;;;;;;5135374;27;20035;-72
2024/03/23 08:10:32;;;;;;;3.05;1.20;;;7.60;90.70;;;;;;5116321;28;20043;-72
2024/03/23 08:12:58;;;;;;;3.30;1.13;;;7.70;90.60;;;;;;5116570;28;20043;-72
2024/03/23 08:15:23;;;;;;;2.20;1.40;;;7.90;90.50;;;;;;5134632;27;20731;-72
2024/03/23 08:17:50;;;;;;;4.53;1.58;;;7.90;90.30;;;;;;5135218;27;20134;-72
2024/03/23 08:20:15;;;;;;;2.10;1.10;;;7.90;90.30;;;;;;5134788;27;20042;-72
2024/03/23 08:22:41;;;;;;;4.47;1.08;;;8.00;90.30;;;;;;5115947;28;20443;-72
2024/03/23 08:25:07;;;;;;;4.43;0.98;;;8.00;90.20;;;;;;5134425;27;20035;-72
2024/03/23 08:27:33;;;;;;;3.55;1.20;;;8.00;90.30;;;;;;5134346;27;20043;-72
2024/03/23 08:29:59;;;;;;;1.55;0.90;;;8.20;90.40;;;;;;5116161;27;20042;-73
2024/03/23 08:32:24;;;;;;;1.65;0.75;;;8.20;90.30;;;;;;5115750;28;20050;-72
2024/03/23 08:34:50;;;;;;;3.30;1.15;;;8.40;90.30;;;;;;5134304;28;20045;-72
2024/03/23 08:37:16;;;;;;;2.85;1.08;;;8.60;90.10;;;;;;5134099;28;20111;-72
2024/03/23 08:39:43;;;;;;;1.65;0.80;;;8.60;89.90;;;;;;5134134;28;20486;-73
2024/03/23 08:42:09;;;;;;;1.98;0.82;;;8.60;89.90;;;;;;5134433;27;20043;-72
2024/03/23 08:44:35;;;;;;;2.97;0.73;;;8.80;89.80;;;;;;5134095;27;20393;-72
2024/03/23 08:47:01;;;;;;;1.48;0.63;;;8.80;89.60;;;;;;5133775;27;20062;-72
2024/03/23 08:49:27;;;;;;;2.17;1.00;;;8.80;89.80;;;;;;5132883;27;20501;-72
2024/03/23 08:51:54;;;;;;;0.93;0.80;;;8.90;89.70;;;;;;5115769;28;20104;-72
2024/03/23 08:54:20;;;;;;;3.33;0.90;;;9.00;89.60;;;;;;5134435;27;20039;-72
2024/03/23 08:56:46;;;;;;;2.08;0.82;;;9.10;89.40;;;;;;5134607;27;20044;-72
2024/03/23 08:59:11;;;;;;;1.60;0.77;;;9.20;89.20;;;;;;5098835;28;20039;-72
2024/03/23 09:01:38;;;;;;;2.05;0.95;;;9.40;89.00;;;;;;5115729;28;20054;-73
2024/03/23 09:04:04;;;;;;;1.55;0.65;;;9.60;88.60;;;;;;5098788;28;20036;-73
2024/03/23 09:06:30;;;;;;;3.83;0.95;;;9.60;88.10;;;;;;5098512;28;20058;-72
2024/03/23 09:08:55;;;;;;;2.90;0.80;;;9.60;88.00;;;;;;5115013;28;20039;-72
2024/03/23 09:11:21;;;;;;;2.22;0.90;;;9.60;87.90;;;;;;5115494;28;20047;-71
2024/03/23 09:13:57;;;;;;;2.20;0.80;;;9.60;87.90;;;;;;5115075;27;20047;-72
2024/03/23 09:16:23;;;;;;;1.70;0.75;;;9.50;87.80;;;;;;5096651;28;20553;-72
2024/03/23 09:18:48;;;;;;;2.47;1.00;;;9.50;87.70;;;;;;5133998;27;20066;-71
2024/03/23 09:21:17;;;;;;;2.17;1.00;;;9.50;87.60;;;;;;5133882;27;20036;-73
2024/03/23 09:23:45;;;;;;;3.45;0.98;;;9.50;87.50;;;;;;5070123;28;20051;-73
2024/03/23 09:26:11;;;;;;;3.10;0.80;;;9.30;87.20;;;;;;4994000;28;20026;-73
2024/03/23 09:28:37;;;;;;;1.85;0.75;;;9.20;87.40;;;;;;5011089;28;20034;-73
2024/03/23 09:31:07;;;;;;;1.13;0.57;;;9.10;87.80;;;;;;5010661;28;20134;-73
2024/03/23 09:33:34;;;;;;;1.67;0.60;;;9.20;87.90;;;;;;5011211;28;20053;-73
2024/03/23 09:36:05;;;;;;;2.17;1.10;;;9.20;87.80;;;;;;4977800;28;20559;-74
2024/03/23 09:38:31;;;;;;;0.50;0.50;;;9.30;87.40;;;;;;4977754;28;20038;-73
2024/03/23 09:41:06;;;;;;;1.48;0.65;;;9.30;87.10;;;;;;4994082;28;20617;-73
2024/03/23 09:43:32;;;;;;;2.38;0.65;;;9.20;87.10;;;;;;4978972;28;20065;-72
2024/03/23 09:45:57;;;;;;;3.03;0.73;;;9.00;87.20;;;;;;4994113;28;20457;-72
2024/03/23 09:48:24;;;;;;;0.95;0.68;;;8.90;87.40;;;;;;4977681;28;20049;-73
2024/03/23 09:50:50;;;;;;;0.65;0.60;;;8.60;87.80;;;;;;5010430;28;20076;-72
2024/03/23 09:53:18;;;;;;;1.48;0.57;;;8.60;88.40;;;;;;4993803;28;20057;-72
2024/03/23 09:55:44;;;;;;;1.80;0.82;;;8.70;88.60;;;;;;5026690;28;20128;-72
2024/03/23 09:58:16;;;;;;;1.63;0.68;;;8.80;88.20;;;;;;5051923;28;20036;-71
2024/03/23 10:00:41;;;;;;;2.05;0.57;;;8.90;87.90;;;;;;5090357;28;20093;-69
2024/03/23 10:03:08;;;;;;;2.53;0.68;;;9.10;87.50;;;;;;5073344;28;20127;-71
2024/03/23 10:05:34;;;;;;;1.63;0.70;;;9.30;87.00;;;;;;5073065;28;20036;-69
2024/03/23 10:08:17;;;;;;;1.60;0.63;;;9.30;86.60;;;;;;5090041;28;20046;-69
2024/03/23 10:10:45;;;;;;;1.52;0.70;;;9.50;86.40;;;;;;5072933;28;20036;-70
2024/03/23 10:13:14;;;;;;;3.47;0.80;;;9.70;86.00;;;;;;5072867;28;20048;-70
2024/03/23 10:15:39;;;;;;;1.85;0.50;;;9.90;85.70;;;;;;5090399;28;20044;-70
2024/03/23 10:18:21;;;;;;;1.70;0.73;;;9.80;85.10;;;;;;5072933;28;20043;-70
2024/03/23 10:21:05;;;;;;;1.63;0.70;;;9.80;84.90;;;;;;5090182;28;20040;-71
2024/03/23 10:23:33;;;;;;;2.60;0.70;;;9.70;85.00;;;;;;5087740;28;20501;-71
2024/03/23 10:26:12;;;;;;;2.30;0.70;;;9.40;85.30;;;;;;5098594;27;20406;-72
2024/03/23 10:28:51;;;;;;;1.05;0.55;;;9.30;85.70;;;;;;5131834;28;20039;-71
2024/03/23 10:31:17;;;;;;;1.90;0.90;;;9.30;85.70;;;;;;5132479;28;20379;-72
2024/03/23 10:33:47;;;;;;;4.50;1.02;;;9.40;85.50;;;;;;5097286;27;20099;-72
2024/03/23 10:36:13;;;;;;;2.70;0.80;;;9.40;85.30;;;;;;5080405;28;20042;-72
2024/03/23 10:38:42;;;;;;;4.38;0.98;;;9.50;84.90;;;;;;5132491;27;20130;-71
2024/03/23 10:41:10;;;;;;;2.20;1.10;;;9.50;84.50;;;;;;5080070;27;20039;-71
2024/03/23 10:43:36;;;;;;;1.85;0.82;;;9.50;84.30;;;;;;5114103;28;20066;-72
2024/03/23 10:46:02;;;;;;;1.95;0.82;;;9.50;84.40;;;;;;5112447;28;20046;-73
2024/03/23 10:48:28;;;;;;;1.40;0.70;;;9.70;84.30;;;;;;5114322;27;20087;-71
2024/03/23 10:50:54;;;;;;;1.15;0.55;;;9.80;84.10;;;;;;5097002;27;20130;-71
2024/03/23 10:53:25;;;;;;;2.55;0.82;;;9.90;84.00;;;;;;5132229;27;20489;-70
2024/03/23 10:55:51;;;;;;;2.45;0.77;;;10.00;84.40;;;;;;5130637;28;20145;-70
2024/03/23 10:58:21;;;;;;;2.75;0.80;;;10.10;83.30;;;;;;5111482;28;20187;-70
2024/03/23 11:00:48;;;;;;;2.05;0.80;;;10.20;83.30;;;;;;5096637;27;20043;-71
2024/03/23 11:03:44;;;;;;;1.65;0.80;;;10.30;83.30;;;;;;5113757;28;20126;-71
2024/03/23 11:06:09;;;;;;;3.65;1.13;;;10.50;82.80;;;;;;5131412;28;20088;-71
2024/03/23 11:08:37;;;;;;;3.13;1.55;;;10.50;82.20;;;;;;5113540;28;20122;-71
2024/03/23 11:11:20;;;;;;;1.40;0.90;;;10.50;81.80;;;;;;5132274;27;20110;-70
2024/03/23 11:13:48;;;;;;;2.63;0.82;;;10.40;81.80;;;;;;5116870;28;20513;-71
2024/03/23 11:16:30;;;;;;;1.50;0.80;;;10.30;81.80;;;;;;5117320;27;20096;-72
2024/03/23 11:19:36;;;;;;;1.90;0.93;;;10.00;82.20;;;;;;5101743;28;20062;-72
2024/03/23 11:22:02;;;;;;;3.28;0.85;;;9.80;82.80;;;;;;5116518;28;20043;-71
2024/03/23 11:24:27;;;;;;;1.27;0.80;;;10.00;83.10;;;;;;5117131;28;20122;-72
2024/03/23 11:26:53;;;;;;;2.58;1.00;;;10.10;82.80;;;;;;5117204;28;20117;-72
2024/03/23 11:29:19;;;;;;;2.95;0.95;;;10.20;82.30;;;;;;5116742;27;20035;-72
2024/03/23 11:31:50;;;;;;;1.95;0.80;;;10.20;82.10;;;;;;5135231;27;20039;-72
2024/03/23 11:34:17;;;;;;;3.90;1.00;;;10.20;81.80;;;;;;5135173;27;20054;-72
2024/03/23 11:36:43;;;;;;;2.00;0.88;;;10.10;81.80;;;;;;5100245;27;20092;-72
2024/03/23 11:39:16;;;;;;;3.08;1.20;;;10.00;82.00;;;;;;5100631;28;20039;-72
2024/03/23 11:41:50;;;;;;;3.67;0.90;;;10.00;81.80;;;;;;5133910;28;20088;-72
2024/03/23 11:44:20;;;;;;;1.45;0.70;;;10.20;81.60;;;;;;5135723;28;20035;-72
2024/03/23 11:46:47;;;;;;;2.77;1.17;;;10.20;81.10;;;;;;5096914;28;20452;-72
2024/03/23 11:49:24;;;;;;;1.65;0.80;;;10.10;80.80;;;;;;5073511;28;20510;-72
2024/03/23 11:51:51;;;;;;;4.30;1.08;;;9.90;80.90;;;;;;5075111;28;20048;-72
2024/03/23 11:54:21;;;;;;;1.55;0.90;;;9.80;81.40;;;;;;5092453;28;20043;-71
2024/03/23 11:57:04;;;;;;;2.50;0.90;;;9.80;81.70;;;;;;5091872;28;20052;-71
2024/03/23 11:59:40;;;;;;;2.45;1.00;;;9.70;81.40;;;;;;5091622;28;20057;-71
2024/03/23 12:02:10;;;;;;;4.18;1.13;;;9.60;81.20;;;;;;5091955;28;20040;-71
2024/03/23 12:04:36;;;;;;;3.47;0.90;;;9.50;81.30;;;;;;5058503;28;20033;-71
2024/03/23 12:07:21;;;;;;;2.50;0.85;;;9.40;81.40;;;;;;5091837;28;20044;-73
2024/03/23 12:10:00;;;;;;;0.60;0.60;;;9.40;81.70;;;;;;5074829;28;20503;-73
2024/03/23 12:12:26;;;;;;;2.58;0.80;;;9.30;81.60;;;;;;5074612;28;20036;-73
2024/03/23 12:15:08;;;;;;;1.77;0.80;;;9.30;81.60;;;;;;5074774;28;20117;-72
2024/03/23 12:17:34;;;;;;;1.75;0.70;;;9.20;81.60;;;;;;5075063;28;20055;-72
2024/03/23 12:20:01;;;;;;;2.63;0.88;;;9.10;81.70;;;;;;5092015;28;20112;-72
2024/03/23 12:22:26;;;;;;;2.35;0.98;;;9.10;81.90;;;;;;5116378;27;20130;-72
2024/03/23 12:24:53;;;;;;;2.08;0.60;;;9.00;81.90;;;;;;5134581;27;20062;-73
2024/03/23 12:27:18;;;;;;;2.92;0.80;;;9.00;82.00;;;;;;5116161;28;20115;-72
2024/03/23 12:29:46;;;;;;;1.88;0.65;;;9.10;82.10;;;;;;5134296;27;20031;-71
2024/03/23 12:32:13;;;;;;;2.65;0.82;;;9.20;82.10;;;;;;5134516;28;20100;-72
2024/03/23 12:34:39;;;;;;;2.25;0.80;;;9.20;81.70;;;;;;5116162;28;20043;-72
2024/03/23 12:37:06;;;;;;;3.20;0.90;;;9.30;81.50;;;;;;5116677;28;20122;-72
2024/03/23 12:39:32;;;;;;;1.88;0.90;;;9.40;81.20;;;;;;5134748;27;20035;-72
2024/03/23 12:41:58;;;;;;;2.10;0.70;;;9.50;81.10;;;;;;5134016;27;20035;-72
2024/03/23 12:44:24;;;;;;;1.45;0.70;;;9.60;81.20;;;;;;5098670;28;20074;-72
2024/03/23 12:46:49;;;;;;;1.20;0.60;;;9.90;80.70;;;;;;5134228;27;20480;-72
2024/03/23 12:49:15;;;;;;;2.63;0.75;;;10.10;80.30;;;;;;5115717;28;20126;-72
2024/03/23 12:51:56;;;;;;;1.83;0.80;;;10.20;79.80;;;;;;5133743;27;20482;-72
2024/03/23 12:54:22;;;;;;;3.17;0.90;;;10.30;79.20;;;;;;5132693;28;20035;-72
2024/03/23 12:56:50;;;;;;;3.35;0.77;;;10.60;79.00;;;;;;5115362;28;20269;-72